La Cruz, Costa Rica

2:17 PM CST on April 26, 2017 (GMT -0600)
Maritza Biological Station | | Change Station

Elev 1801 ft 10.96 °N, 85.50 °W | Updated 6 seconds ago

Rain
Rain
77.4 °F
Feels Like 79 °F
N
0.0
Wind Variable Wind from West
Gusts 0.0 mph

Today
High -- | Low -- °F
--% Chance of Precip.
Yesterday
High -- | Low -- °F
Precip. -- in
Pressure 29.74 in
Visibility 6.2 miles
Clouds Few 2000 ft
Mostly Cloudy 20000 ft
Heat Index 79 °F
Dew Point 74 °F
Humidity 89%
Rainfall 0.17 in
Snow Depth Not available.
5:25 AM 5:54 PM
New Moon, 0% visible
METAR MNRS 262000Z 00000KT 9999 FEW020 BKN200 33/22 Q1007
Pressure 29.74 in
Visibility 6.2 miles
Clouds Few 2000 ft
Mostly Cloudy 20000 ft
Heat Index 79 °F
Dew Point 74 °F
Humidity 89%
Rainfall 0.17 in
Snow Depth Not available.
5:25 AM 5:54 PM
New Moon, 0% visible
METAR MNRS 262000Z 00000KT 9999 FEW020 BKN200 33/22 Q1007

Get Severe Weather Alerts

Thanks for signing up!

Be on the lookout for a verification email in your inbox.

You'll start receiving the daily forecast at 8 AM.

×

10-Day Weather Forecast

No radar image for this location.
×

Almanac

Astronomy

Apr. 26, 2017 Rise Set
Actual Time
Civil Twilight
Nautical Twilight
Astronomical Twilight
Moon
Length of Visible Light
Length of Day
Tomorrow will be .
, % of the Moon is Illuminated

Today's Extremes

Country Highs Country Lows

Community

WunderPhotos

WunderBlog® & News

Nearby

Air Quality

  Air Quality AQ Index Pollutant
Not available.

Snow Depth

Station Depth Elevation

Earthquake Activity

City Distance Mag. Time & Date
Minimum magnitude displayed is 2.5.

Coastal Water Temperatures

Place Temperature

Stations

Nearby Weather Stations

Station Location Temp. Windchill Dew Point Humidity Wind Precip. Elev Updated Type